sensor_id;sensor_type;location;lat;lon;timestamp;P1;durP1;ratioP1;P2;durP2;ratioP2
68438;SDS011;55421;51.600;5.718;2022-07-17T00:01:35;6.00;;;2.30;;
68438;SDS011;55421;51.600;5.718;2022-07-17T00:04:01;6.20;;;2.30;;
68438;SDS011;55421;51.600;5.718;2022-07-17T00:06:28;3.70;;;2.00;;
68438;SDS011;55421;51.600;5.718;2022-07-17T00:08:54;5.20;;;1.90;;
68438;SDS011;55421;51.600;5.718;2022-07-17T00:11:20;5.40;;;2.10;;
68438;SDS011;55421;51.600;5.718;2022-07-17T00:13:47;4.20;;;2.60;;
68438;SDS011;55421;51.600;5.718;2022-07-17T00:16:14;5.50;;;2.10;;
68438;SDS011;55421;51.600;5.718;2022-07-17T00:18:41;5.90;;;2.40;;
68438;SDS011;55421;51.600;5.718;2022-07-17T00:21:07;3.60;;;1.90;;
68438;SDS011;55421;51.600;5.718;2022-07-17T00:23:33;8.20;;;2.60;;
68438;SDS011;55421;51.600;5.718;2022-07-17T00:26:00;4.00;;;2.00;;
68438;SDS011;55421;51.600;5.718;2022-07-17T00:28:26;4.10;;;2.00;;
68438;SDS011;55421;51.600;5.718;2022-07-17T00:30:53;6.30;;;2.50;;
68438;SDS011;55421;51.600;5.718;2022-07-17T00:33:19;4.00;;;2.40;;
68438;SDS011;55421;51.600;5.718;2022-07-17T00:35:45;7.50;;;3.00;;
68438;SDS011;55421;51.600;5.718;2022-07-17T00:38:12;6.00;;;2.60;;
68438;SDS011;55421;51.600;5.718;2022-07-17T00:40:39;5.00;;;2.50;;
68438;SDS011;55421;51.600;5.718;2022-07-17T00:43:06;6.80;;;2.30;;
68438;SDS011;55421;51.600;5.718;2022-07-17T00:45:32;6.90;;;2.60;;
68438;SDS011;55421;51.600;5.718;2022-07-17T00:48:01;4.70;;;2.40;;
68438;SDS011;55421;51.600;5.718;2022-07-17T00:52:59;2.90;;;1.90;;
68438;SDS011;55421;51.600;5.718;2022-07-17T00:55:26;5.30;;;2.20;;
68438;SDS011;55421;51.600;5.718;2022-07-17T00:57:55;6.10;;;2.30;;
68438;SDS011;55421;51.600;5.718;2022-07-17T01:00:23;4.80;;;2.10;;
68438;SDS011;55421;51.600;5.718;2022-07-17T01:02:51;4.50;;;2.50;;
68438;SDS011;55421;51.600;5.718;2022-07-17T01:05:20;6.40;;;3.10;;
68438;SDS011;55421;51.600;5.718;2022-07-17T01:07:48;6.80;;;2.30;;
68438;SDS011;55421;51.600;5.718;2022-07-17T01:10:16;4.20;;;2.40;;
68438;SDS011;55421;51.600;5.718;2022-07-17T01:12:47;5.10;;;2.10;;
68438;SDS011;55421;51.600;5.718;2022-07-17T01:15:15;5.10;;;2.60;;
68438;SDS011;55421;51.600;5.718;2022-07-17T01:17:42;7.10;;;2.40;;
68438;SDS011;55421;51.600;5.718;2022-07-17T01:20:10;3.20;;;2.30;;
68438;SDS011;55421;51.600;5.718;2022-07-17T01:22:50;6.00;;;2.20;;
68438;SDS011;55421;51.600;5.718;2022-07-17T01:25:21;4.10;;;2.50;;
68438;SDS011;55421;51.600;5.718;2022-07-17T01:27:48;4.00;;;2.80;;
68438;SDS011;55421;51.600;5.718;2022-07-17T01:30:15;6.80;;;2.90;;
68438;SDS011;55421;51.600;5.718;2022-07-17T01:32:42;4.80;;;2.50;;
68438;SDS011;55421;51.600;5.718;2022-07-17T01:35:11;5.10;;;2.50;;
68438;SDS011;55421;51.600;5.718;2022-07-17T01:40:08;5.50;;;2.20;;
68438;SDS011;55421;51.600;5.718;2022-07-17T01:42:36;6.00;;;2.70;;
68438;SDS011;55421;51.600;5.718;2022-07-17T01:45:02;4.90;;;2.60;;
68438;SDS011;55421;51.600;5.718;2022-07-17T01:47:29;4.40;;;2.30;;
68438;SDS011;55421;51.600;5.718;2022-07-17T01:49:56;2.90;;;2.40;;
68438;SDS011;55421;51.600;5.718;2022-07-17T01:52:25;4.30;;;2.30;;
68438;SDS011;55421;51.600;5.718;2022-07-17T01:54:52;3.80;;;2.30;;
68438;SDS011;55421;51.600;5.718;2022-07-17T01:57:19;5.80;;;2.50;;
68438;SDS011;55421;51.600;5.718;2022-07-17T01:59:46;4.30;;;2.80;;
68438;SDS011;55421;51.600;5.718;2022-07-17T02:02:14;5.00;;;2.40;;
68438;SDS011;55421;51.600;5.718;2022-07-17T02:04:44;7.40;;;2.40;;
68438;SDS011;55421;51.600;5.718;2022-07-17T02:07:11;4.80;;;2.60;;
68438;SDS011;55421;51.600;5.718;2022-07-17T02:09:38;3.30;;;2.60;;
68438;SDS011;55421;51.600;5.718;2022-07-17T02:12:05;4.20;;;2.40;;
68438;SDS011;55421;51.600;5.718;2022-07-17T02:14:32;5.60;;;2.50;;
68438;SDS011;55421;51.600;5.718;2022-07-17T02:17:00;5.60;;;2.30;;
68438;SDS011;55421;51.600;5.718;2022-07-17T02:19:27;7.50;;;3.10;;
68438;SDS011;55421;51.600;5.718;2022-07-17T02:21:54;4.40;;;2.70;;
68438;SDS011;55421;51.600;5.718;2022-07-17T02:24:20;5.50;;;2.70;;
68438;SDS011;55421;51.600;5.718;2022-07-17T02:26:47;4.20;;;2.60;;
68438;SDS011;55421;51.600;5.718;2022-07-17T02:29:13;5.70;;;2.90;;
68438;SDS011;55421;51.600;5.718;2022-07-17T02:31:39;3.30;;;2.10;;
68438;SDS011;55421;51.600;5.718;2022-07-17T02:34:06;2.90;;;2.50;;
68438;SDS011;55421;51.600;5.718;2022-07-17T02:36:32;4.10;;;2.30;;
68438;SDS011;55421;51.600;5.718;2022-07-17T02:38:59;9.20;;;2.80;;
68438;SDS011;55421;51.600;5.718;2022-07-17T02:41:27;5.00;;;2.90;;
68438;SDS011;55421;51.600;5.718;2022-07-17T02:43:53;5.90;;;2.90;;
68438;SDS011;55421;51.600;5.718;2022-07-17T02:46:19;6.00;;;2.70;;
68438;SDS011;55421;51.600;5.718;2022-07-17T02:48:46;3.90;;;2.70;;
68438;SDS011;55421;51.600;5.718;2022-07-17T02:51:12;6.50;;;2.50;;
68438;SDS011;55421;51.600;5.718;2022-07-17T02:53:39;6.80;;;2.50;;
68438;SDS011;55421;51.600;5.718;2022-07-17T02:56:05;6.50;;;2.50;;
68438;SDS011;55421;51.600;5.718;2022-07-17T02:58:32;3.40;;;2.30;;
68438;SDS011;55421;51.600;5.718;2022-07-17T03:00:59;6.50;;;2.70;;
68438;SDS011;55421;51.600;5.718;2022-07-17T03:03:25;5.20;;;2.70;;
68438;SDS011;55421;51.600;5.718;2022-07-17T03:05:52;6.60;;;2.70;;
68438;SDS011;55421;51.600;5.718;2022-07-17T03:08:18;6.10;;;2.90;;
68438;SDS011;55421;51.600;5.718;2022-07-17T03:10:44;5.20;;;2.70;;
68438;SDS011;55421;51.600;5.718;2022-07-17T03:13:11;8.10;;;2.80;;
68438;SDS011;55421;51.600;5.718;2022-07-17T03:15:37;6.10;;;2.90;;
68438;SDS011;55421;51.600;5.718;2022-07-17T03:18:04;7.90;;;2.50;;
68438;SDS011;55421;51.600;5.718;2022-07-17T03:20:30;6.50;;;2.70;;
68438;SDS011;55421;51.600;5.718;2022-07-17T03:22:56;8.00;;;2.30;;
68438;SDS011;55421;51.600;5.718;2022-07-17T03:25:23;5.80;;;2.90;;
68438;SDS011;55421;51.600;5.718;2022-07-17T03:27:49;3.90;;;2.40;;
68438;SDS011;55421;51.600;5.718;2022-07-17T03:30:15;3.20;;;2.60;;
68438;SDS011;55421;51.600;5.718;2022-07-17T03:32:42;4.10;;;2.70;;
68438;SDS011;55421;51.600;5.718;2022-07-17T03:35:08;5.30;;;2.50;;
68438;SDS011;55421;51.600;5.718;2022-07-17T03:37:35;4.60;;;2.70;;
68438;SDS011;55421;51.600;5.718;2022-07-17T03:40:05;6.30;;;2.50;;
68438;SDS011;55421;51.600;5.718;2022-07-17T03:42:32;4.00;;;2.50;;
68438;SDS011;55421;51.600;5.718;2022-07-17T03:44:58;5.50;;;2.40;;
68438;SDS011;55421;51.600;5.718;2022-07-17T03:47:25;2.70;;;2.50;;
68438;SDS011;55421;51.600;5.718;2022-07-17T03:49:51;4.00;;;2.70;;
68438;SDS011;55421;51.600;5.718;2022-07-17T03:52:18;4.30;;;2.80;;
68438;SDS011;55421;51.600;5.718;2022-07-17T03:54:44;5.60;;;3.10;;
68438;SDS011;55421;51.600;5.718;2022-07-17T03:57:11;9.80;;;3.10;;
68438;SDS011;55421;51.600;5.718;2022-07-17T03:59:37;7.10;;;3.20;;
68438;SDS011;55421;51.600;5.718;2022-07-17T04:02:03;6.50;;;3.20;;
68438;SDS011;55421;51.600;5.718;2022-07-17T04:04:30;5.50;;;2.80;;
68438;SDS011;55421;51.600;5.718;2022-07-17T04:06:56;4.40;;;2.50;;
68438;SDS011;55421;51.600;5.718;2022-07-17T04:09:23;8.10;;;2.70;;
68438;SDS011;55421;51.600;5.718;2022-07-17T04:11:49;4.60;;;2.70;;
68438;SDS011;55421;51.600;5.718;2022-07-17T04:14:16;7.30;;;2.90;;
68438;SDS011;55421;51.600;5.718;2022-07-17T04:16:42;4.60;;;3.10;;
68438;SDS011;55421;51.600;5.718;2022-07-17T04:19:09;5.50;;;2.60;;
68438;SDS011;55421;51.600;5.718;2022-07-17T04:21:35;5.50;;;2.70;;
68438;SDS011;55421;51.600;5.718;2022-07-17T04:24:02;4.20;;;2.50;;
68438;SDS011;55421;51.600;5.718;2022-07-17T04:26:28;4.40;;;2.80;;
68438;SDS011;55421;51.600;5.718;2022-07-17T04:28:55;8.20;;;3.30;;
68438;SDS011;55421;51.600;5.718;2022-07-17T04:31:21;5.70;;;3.20;;
68438;SDS011;55421;51.600;5.718;2022-07-17T04:33:48;6.90;;;2.90;;
68438;SDS011;55421;51.600;5.718;2022-07-17T04:36:18;4.50;;;3.00;;
68438;SDS011;55421;51.600;5.718;2022-07-17T04:38:45;5.60;;;2.90;;
68438;SDS011;55421;51.600;5.718;2022-07-17T04:41:11;8.10;;;3.30;;
68438;SDS011;55421;51.600;5.718;2022-07-17T04:43:37;8.80;;;3.20;;
68438;SDS011;55421;51.600;5.718;2022-07-17T04:46:04;8.20;;;3.20;;
68438;SDS011;55421;51.600;5.718;2022-07-17T04:48:31;6.70;;;3.50;;
68438;SDS011;55421;51.600;5.718;2022-07-17T04:50:58;11.20;;;3.70;;
68438;SDS011;55421;51.600;5.718;2022-07-17T04:53:25;7.80;;;3.30;;
68438;SDS011;55421;51.600;5.718;2022-07-17T04:55:51;4.70;;;3.50;;
68438;SDS011;55421;51.600;5.718;2022-07-17T04:58:17;7.80;;;3.30;;
68438;SDS011;55421;51.600;5.718;2022-07-17T05:00:44;4.20;;;3.40;;
68438;SDS011;55421;51.600;5.718;2022-07-17T05:03:11;7.00;;;3.30;;
68438;SDS011;55421;51.600;5.718;2022-07-17T05:05:37;6.80;;;3.50;;
68438;SDS011;55421;51.600;5.718;2022-07-17T05:08:06;9.00;;;3.40;;
68438;SDS011;55421;51.600;5.718;2022-07-17T05:10:32;10.40;;;3.70;;
68438;SDS011;55421;51.600;5.718;2022-07-17T05:12:59;7.30;;;3.80;;
68438;SDS011;55421;51.600;5.718;2022-07-17T05:15:25;7.50;;;3.70;;
68438;SDS011;55421;51.600;5.718;2022-07-17T05:17:52;6.60;;;3.30;;
68438;SDS011;55421;51.600;5.718;2022-07-17T05:20:18;9.40;;;3.40;;
68438;SDS011;55421;51.600;5.718;2022-07-17T05:22:45;8.40;;;3.60;;
68438;SDS011;55421;51.600;5.718;2022-07-17T05:25:11;6.40;;;3.90;;
68438;SDS011;55421;51.600;5.718;2022-07-17T05:27:37;10.90;;;4.00;;
68438;SDS011;55421;51.600;5.718;2022-07-17T05:30:04;6.70;;;3.90;;
68438;SDS011;55421;51.600;5.718;2022-07-17T05:32:31;6.00;;;3.80;;
68438;SDS011;55421;51.600;5.718;2022-07-17T05:34:57;5.40;;;3.90;;
68438;SDS011;55421;51.600;5.718;2022-07-17T05:37:24;7.50;;;3.80;;
68438;SDS011;55421;51.600;5.718;2022-07-17T05:39:50;6.00;;;3.90;;
68438;SDS011;55421;51.600;5.718;2022-07-17T05:42:16;4.80;;;3.30;;
68438;SDS011;55421;51.600;5.718;2022-07-17T05:44:43;6.50;;;3.60;;
68438;SDS011;55421;51.600;5.718;2022-07-17T05:47:09;7.00;;;3.60;;
68438;SDS011;55421;51.600;5.718;2022-07-17T05:49:36;5.00;;;3.50;;
68438;SDS011;55421;51.600;5.718;2022-07-17T05:52:02;9.70;;;4.10;;
68438;SDS011;55421;51.600;5.718;2022-07-17T05:54:29;12.20;;;3.70;;
68438;SDS011;55421;51.600;5.718;2022-07-17T05:56:55;5.90;;;3.90;;
68438;SDS011;55421;51.600;5.718;2022-07-17T05:59:22;6.60;;;3.60;;
68438;SDS011;55421;51.600;5.718;2022-07-17T06:01:48;7.10;;;3.90;;
68438;SDS011;55421;51.600;5.718;2022-07-17T06:04:15;7.20;;;3.40;;
68438;SDS011;55421;51.600;5.718;2022-07-17T06:06:41;8.80;;;3.70;;
68438;SDS011;55421;51.600;5.718;2022-07-17T06:09:08;8.50;;;3.70;;
68438;SDS011;55421;51.600;5.718;2022-07-17T06:11:34;5.40;;;3.50;;
68438;SDS011;55421;51.600;5.718;2022-07-17T06:14:01;8.70;;;3.50;;
68438;SDS011;55421;51.600;5.718;2022-07-17T06:16:27;6.80;;;3.60;;
68438;SDS011;55421;51.600;5.718;2022-07-17T06:18:54;5.40;;;3.20;;
68438;SDS011;55421;51.600;5.718;2022-07-17T06:21:20;6.50;;;3.50;;
68438;SDS011;55421;51.600;5.718;2022-07-17T06:23:46;7.60;;;3.40;;
68438;SDS011;55421;51.600;5.718;2022-07-17T06:26:13;6.40;;;3.20;;
68438;SDS011;55421;51.600;5.718;2022-07-17T06:28:39;5.90;;;3.20;;
68438;SDS011;55421;51.600;5.718;2022-07-17T06:31:06;9.50;;;3.90;;
68438;SDS011;55421;51.600;5.718;2022-07-17T06:33:32;6.40;;;2.80;;
68438;SDS011;55421;51.600;5.718;2022-07-17T06:35:58;4.50;;;3.10;;
68438;SDS011;55421;51.600;5.718;2022-07-17T06:38:25;4.90;;;2.80;;
68438;SDS011;55421;51.600;5.718;2022-07-17T06:40:51;7.60;;;3.40;;
68438;SDS011;55421;51.600;5.718;2022-07-17T06:43:18;7.40;;;3.50;;
68438;SDS011;55421;51.600;5.718;2022-07-17T06:45:44;6.00;;;3.20;;
68438;SDS011;55421;51.600;5.718;2022-07-17T06:48:11;5.80;;;3.10;;
68438;SDS011;55421;51.600;5.718;2022-07-17T06:50:37;6.40;;;3.00;;
68438;SDS011;55421;51.600;5.718;2022-07-17T06:53:04;8.60;;;3.70;;
68438;SDS011;55421;51.600;5.718;2022-07-17T06:55:30;9.40;;;3.10;;
68438;SDS011;55421;51.600;5.718;2022-07-17T06:57:57;6.80;;;2.80;;
68438;SDS011;55421;51.600;5.718;2022-07-17T07:00:23;6.70;;;3.00;;
68438;SDS011;55421;51.600;5.718;2022-07-17T07:02:49;7.20;;;3.00;;
68438;SDS011;55421;51.600;5.718;2022-07-17T07:05:16;9.10;;;3.30;;
68438;SDS011;55421;51.600;5.718;2022-07-17T07:07:42;17.70;;;3.50;;
68438;SDS011;55421;51.600;5.718;2022-07-17T07:10:09;7.10;;;3.10;;
68438;SDS011;55421;51.600;5.718;2022-07-17T07:12:35;6.60;;;2.90;;
68438;SDS011;55421;51.600;5.718;2022-07-17T07:15:02;4.90;;;2.90;;
68438;SDS011;55421;51.600;5.718;2022-07-17T07:17:29;5.30;;;3.70;;
68438;SDS011;55421;51.600;5.718;2022-07-17T07:19:58;8.50;;;3.20;;
68438;SDS011;55421;51.600;5.718;2022-07-17T07:22:24;8.20;;;3.40;;
68438;SDS011;55421;51.600;5.718;2022-07-17T07:24:51;10.40;;;2.90;;
68438;SDS011;55421;51.600;5.718;2022-07-17T07:27:17;7.60;;;3.70;;
68438;SDS011;55421;51.600;5.718;2022-07-17T07:29:44;8.00;;;3.40;;
68438;SDS011;55421;51.600;5.718;2022-07-17T07:32:10;6.70;;;3.30;;
68438;SDS011;55421;51.600;5.718;2022-07-17T07:34:37;7.30;;;3.30;;
68438;SDS011;55421;51.600;5.718;2022-07-17T07:37:03;6.10;;;3.30;;
68438;SDS011;55421;51.600;5.718;2022-07-17T07:39:30;7.00;;;3.90;;
68438;SDS011;55421;51.600;5.718;2022-07-17T07:41:56;9.00;;;3.30;;
68438;SDS011;55421;51.600;5.718;2022-07-17T07:44:23;7.40;;;2.80;;
68438;SDS011;55421;51.600;5.718;2022-07-17T07:46:49;12.20;;;3.80;;
68438;SDS011;55421;51.600;5.718;2022-07-17T07:49:16;8.10;;;3.20;;
68438;SDS011;55421;51.600;5.718;2022-07-17T07:51:43;6.00;;;3.20;;
68438;SDS011;55421;51.600;5.718;2022-07-17T07:54:10;6.40;;;2.90;;
68438;SDS011;55421;51.600;5.718;2022-07-17T07:56:37;7.60;;;2.90;;
68438;SDS011;55421;51.600;5.718;2022-07-17T07:59:03;5.90;;;2.70;;
68438;SDS011;55421;51.600;5.718;2022-07-17T08:01:30;7.80;;;2.40;;
68438;SDS011;55421;51.600;5.718;2022-07-17T08:03:56;7.50;;;2.80;;
68438;SDS011;55421;51.600;5.718;2022-07-17T08:06:22;3.50;;;2.40;;
68438;SDS011;55421;51.600;5.718;2022-07-17T08:08:49;6.30;;;2.60;;
68438;SDS011;55421;51.600;5.718;2022-07-17T08:11:15;6.90;;;2.60;;
68438;SDS011;55421;51.600;5.718;2022-07-17T08:13:42;7.70;;;3.10;;
68438;SDS011;55421;51.600;5.718;2022-07-17T08:16:08;9.20;;;3.20;;
68438;SDS011;55421;51.600;5.718;2022-07-17T08:18:35;10.80;;;2.90;;
68438;SDS011;55421;51.600;5.718;2022-07-17T08:21:01;7.50;;;3.60;;
68438;SDS011;55421;51.600;5.718;2022-07-17T08:23:27;8.10;;;3.00;;
68438;SDS011;55421;51.600;5.718;2022-07-17T08:25:54;7.10;;;2.70;;
68438;SDS011;55421;51.600;5.718;2022-07-17T08:28:20;9.60;;;3.30;;
68438;SDS011;55421;51.600;5.718;2022-07-17T08:30:48;6.40;;;3.20;;
68438;SDS011;55421;51.600;5.718;2022-07-17T08:33:14;7.00;;;2.90;;
68438;SDS011;55421;51.600;5.718;2022-07-17T08:35:42;10.80;;;2.80;;
68438;SDS011;55421;51.600;5.718;2022-07-17T08:38:09;4.20;;;2.60;;
68438;SDS011;55421;51.600;5.718;2022-07-17T08:40:37;7.50;;;2.90;;
68438;SDS011;55421;51.600;5.718;2022-07-17T08:43:07;6.30;;;2.70;;
68438;SDS011;55421;51.600;5.718;2022-07-17T08:45:35;5.50;;;2.80;;
68438;SDS011;55421;51.600;5.718;2022-07-17T08:48:02;5.40;;;3.30;;
68438;SDS011;55421;51.600;5.718;2022-07-17T08:50:31;4.60;;;2.40;;
68438;SDS011;55421;51.600;5.718;2022-07-17T08:53:03;6.20;;;2.70;;
68438;SDS011;55421;51.600;5.718;2022-07-17T08:55:31;5.00;;;2.50;;
68438;SDS011;55421;51.600;5.718;2022-07-17T08:57:58;6.10;;;2.80;;
68438;SDS011;55421;51.600;5.718;2022-07-17T09:00:25;9.50;;;3.00;;
68438;SDS011;55421;51.600;5.718;2022-07-17T09:05:26;5.00;;;2.70;;
68438;SDS011;55421;51.600;5.718;2022-07-17T09:07:56;5.60;;;2.50;;
68438;SDS011;55421;51.600;5.718;2022-07-17T09:13:23;5.70;;;2.80;;
68438;SDS011;55421;51.600;5.718;2022-07-17T09:16:13;6.40;;;2.80;;
68438;SDS011;55421;51.600;5.718;2022-07-17T09:18:44;3.30;;;2.30;;
68438;SDS011;55421;51.600;5.718;2022-07-17T09:24:02;10.60;;;2.20;;
68438;SDS011;55421;51.600;5.718;2022-07-17T09:26:30;4.10;;;2.20;;
68438;SDS011;55421;51.600;5.718;2022-07-17T09:29:02;8.50;;;2.30;;
68438;SDS011;55421;51.600;5.718;2022-07-17T09:31:31;7.80;;;2.30;;
68438;SDS011;55421;51.600;5.718;2022-07-17T09:33:59;4.20;;;2.20;;
68438;SDS011;55421;51.600;5.718;2022-07-17T09:36:28;5.20;;;2.60;;
68438;SDS011;55421;51.600;5.718;2022-07-17T09:38:57;5.00;;;2.00;;
68438;SDS011;55421;51.600;5.718;2022-07-17T09:41:25;4.00;;;2.30;;
68438;SDS011;55421;51.600;5.718;2022-07-17T09:43:54;5.10;;;2.60;;
68438;SDS011;55421;51.600;5.718;2022-07-17T09:46:24;5.60;;;2.40;;
68438;SDS011;55421;51.600;5.718;2022-07-17T09:49:02;6.00;;;2.40;;
68438;SDS011;55421;51.600;5.718;2022-07-17T09:51:35;6.30;;;2.40;;
68438;SDS011;55421;51.600;5.718;2022-07-17T09:54:06;5.80;;;2.80;;
68438;SDS011;55421;51.600;5.718;2022-07-17T09:56:35;7.50;;;2.30;;
68438;SDS011;55421;51.600;5.718;2022-07-17T09:59:06;5.40;;;2.50;;
68438;SDS011;55421;51.600;5.718;2022-07-17T10:01:36;4.00;;;2.20;;
68438;SDS011;55421;51.600;5.718;2022-07-17T10:04:06;5.20;;;2.20;;
68438;SDS011;55421;51.600;5.718;2022-07-17T10:06:33;4.40;;;2.20;;
68438;SDS011;55421;51.600;5.718;2022-07-17T10:09:00;6.10;;;2.30;;
68438;SDS011;55421;51.600;5.718;2022-07-17T10:11:29;13.10;;;2.80;;
68438;SDS011;55421;51.600;5.718;2022-07-17T10:14:02;6.30;;;2.20;;
68438;SDS011;55421;51.600;5.718;2022-07-17T10:16:32;5.80;;;1.80;;
68438;SDS011;55421;51.600;5.718;2022-07-17T10:18:59;5.90;;;2.20;;
68438;SDS011;55421;51.600;5.718;2022-07-17T10:21:30;8.90;;;1.80;;
68438;SDS011;55421;51.600;5.718;2022-07-17T10:26:38;5.40;;;1.90;;
68438;SDS011;55421;51.600;5.718;2022-07-17T10:29:08;5.90;;;2.60;;
68438;SDS011;55421;51.600;5.718;2022-07-17T10:31:52;4.60;;;2.10;;
68438;SDS011;55421;51.600;5.718;2022-07-17T10:34:36;4.20;;;1.80;;
68438;SDS011;55421;51.600;5.718;2022-07-17T10:42:59;5.80;;;2.40;;
68438;SDS011;55421;51.600;5.718;2022-07-17T10:45:29;3.30;;;1.90;;
68438;SDS011;55421;51.600;5.718;2022-07-17T10:48:13;8.20;;;2.20;;
68438;SDS011;55421;51.600;5.718;2022-07-17T10:50:56;4.30;;;1.90;;
68438;SDS011;55421;51.600;5.718;2022-07-17T10:53:30;4.80;;;2.20;;
68438;SDS011;55421;51.600;5.718;2022-07-17T10:56:08;5.10;;;2.10;;
68438;SDS011;55421;51.600;5.718;2022-07-17T11:01:11;3.70;;;1.60;;
68438;SDS011;55421;51.600;5.718;2022-07-17T11:03:51;2.80;;;2.00;;
68438;SDS011;55421;51.600;5.718;2022-07-17T11:08:59;5.80;;;2.10;;
68438;SDS011;55421;51.600;5.718;2022-07-17T11:14:17;5.70;;;1.90;;
68438;SDS011;55421;51.600;5.718;2022-07-17T11:16:52;4.10;;;1.60;;
68438;SDS011;55421;51.600;5.718;2022-07-17T11:19:26;5.00;;;2.20;;
68438;SDS011;55421;51.600;5.718;2022-07-17T11:21:59;5.70;;;2.50;;
68438;SDS011;55421;51.600;5.718;2022-07-17T11:24:43;4.10;;;1.80;;
68438;SDS011;55421;51.600;5.718;2022-07-17T11:27:19;4.90;;;1.90;;
68438;SDS011;55421;51.600;5.718;2022-07-17T11:29:48;3.90;;;1.90;;
68438;SDS011;55421;51.600;5.718;2022-07-17T11:32:16;3.90;;;1.70;;
68438;SDS011;55421;51.600;5.718;2022-07-17T11:34:43;6.20;;;1.80;;
68438;SDS011;55421;51.600;5.718;2022-07-17T11:37:10;2.50;;;1.40;;
68438;SDS011;55421;51.600;5.718;2022-07-17T11:39:39;6.90;;;2.10;;
68438;SDS011;55421;51.600;5.718;2022-07-17T11:42:08;7.60;;;1.90;;
68438;SDS011;55421;51.600;5.718;2022-07-17T11:44:36;9.00;;;2.30;;
68438;SDS011;55421;51.600;5.718;2022-07-17T11:47:04;4.30;;;1.70;;
68438;SDS011;55421;51.600;5.718;2022-07-17T11:49:36;6.40;;;2.10;;
68438;SDS011;55421;51.600;5.718;2022-07-17T11:52:20;6.70;;;2.00;;
68438;SDS011;55421;51.600;5.718;2022-07-17T11:54:54;4.90;;;1.70;;
68438;SDS011;55421;51.600;5.718;2022-07-17T11:57:23;7.80;;;1.90;;
68438;SDS011;55421;51.600;5.718;2022-07-17T11:59:53;3.80;;;1.60;;
68438;SDS011;55421;51.600;5.718;2022-07-17T12:02:22;4.60;;;1.80;;
68438;SDS011;55421;51.600;5.718;2022-07-17T12:04:58;3.30;;;1.40;;
68438;SDS011;55421;51.600;5.718;2022-07-17T12:07:38;4.80;;;1.50;;
68438;SDS011;55421;51.600;5.718;2022-07-17T12:10:14;3.50;;;1.40;;
68438;SDS011;55421;51.600;5.718;2022-07-17T12:12:57;6.90;;;1.60;;
68438;SDS011;55421;51.600;5.718;2022-07-17T12:15:45;2.90;;;1.60;;
68438;SDS011;55421;51.600;5.718;2022-07-17T12:18:23;4.00;;;1.50;;
68438;SDS011;55421;51.600;5.718;2022-07-17T12:20:56;4.10;;;1.20;;
68438;SDS011;55421;51.600;5.718;2022-07-17T12:23:34;3.70;;;1.30;;
68438;SDS011;55421;51.600;5.718;2022-07-17T12:26:08;5.30;;;1.40;;
68438;SDS011;55421;51.600;5.718;2022-07-17T12:28:37;3.10;;;1.50;;
68438;SDS011;55421;51.600;5.718;2022-07-17T12:31:06;3.40;;;1.60;;
68438;SDS011;55421;51.600;5.718;2022-07-17T12:33:33;2.20;;;1.20;;
68438;SDS011;55421;51.600;5.718;2022-07-17T12:36:00;4.00;;;1.30;;
68438;SDS011;55421;51.600;5.718;2022-07-17T12:38:26;5.90;;;1.40;;
68438;SDS011;55421;51.600;5.718;2022-07-17T12:40:53;4.40;;;1.50;;
68438;SDS011;55421;51.600;5.718;2022-07-17T12:43:20;7.40;;;1.40;;
68438;SDS011;55421;51.600;5.718;2022-07-17T12:45:46;5.70;;;1.60;;
68438;SDS011;55421;51.600;5.718;2022-07-17T12:48:13;2.60;;;1.30;;
68438;SDS011;55421;51.600;5.718;2022-07-17T12:50:40;4.10;;;1.70;;
68438;SDS011;55421;51.600;5.718;2022-07-17T12:53:06;4.60;;;1.80;;
68438;SDS011;55421;51.600;5.718;2022-07-17T12:55:33;5.20;;;1.50;;
68438;SDS011;55421;51.600;5.718;2022-07-17T12:58:00;3.00;;;1.90;;
68438;SDS011;55421;51.600;5.718;2022-07-17T13:00:27;3.30;;;1.30;;
68438;SDS011;55421;51.600;5.718;2022-07-17T13:02:53;6.10;;;1.60;;
68438;SDS011;55421;51.600;5.718;2022-07-17T13:05:20;3.70;;;1.50;;
68438;SDS011;55421;51.600;5.718;2022-07-17T13:07:47;6.60;;;1.80;;
68438;SDS011;55421;51.600;5.718;2022-07-17T13:10:14;2.70;;;1.20;;
68438;SDS011;55421;51.600;5.718;2022-07-17T13:12:40;4.50;;;1.50;;
68438;SDS011;55421;51.600;5.718;2022-07-17T13:15:07;3.20;;;2.00;;
68438;SDS011;55421;51.600;5.718;2022-07-17T13:17:34;4.70;;;1.60;;
68438;SDS011;55421;51.600;5.718;2022-07-17T13:20:03;2.90;;;1.50;;
68438;SDS011;55421;51.600;5.718;2022-07-17T13:22:30;4.30;;;1.30;;
68438;SDS011;55421;51.600;5.718;2022-07-17T13:24:57;1.60;;;1.30;;
68438;SDS011;55421;51.600;5.718;2022-07-17T13:27:23;4.00;;;1.60;;
68438;SDS011;55421;51.600;5.718;2022-07-17T13:29:50;4.40;;;1.50;;
68438;SDS011;55421;51.600;5.718;2022-07-17T13:32:16;4.60;;;1.70;;
68438;SDS011;55421;51.600;5.718;2022-07-17T13:34:43;6.10;;;1.40;;
68438;SDS011;55421;51.600;5.718;2022-07-17T13:37:09;3.00;;;1.20;;
68438;SDS011;55421;51.600;5.718;2022-07-17T13:39:36;4.40;;;1.30;;
68438;SDS011;55421;51.600;5.718;2022-07-17T13:42:03;3.70;;;1.60;;
68438;SDS011;55421;51.600;5.718;2022-07-17T13:44:29;6.80;;;1.20;;
68438;SDS011;55421;51.600;5.718;2022-07-17T13:46:56;7.30;;;1.60;;
68438;SDS011;55421;51.600;5.718;2022-07-17T13:49:23;3.60;;;1.40;;
68438;SDS011;55421;51.600;5.718;2022-07-17T13:51:49;4.80;;;1.30;;
68438;SDS011;55421;51.600;5.718;2022-07-17T13:54:15;3.70;;;1.50;;
68438;SDS011;55421;51.600;5.718;2022-07-17T13:56:42;3.90;;;1.20;;
68438;SDS011;55421;51.600;5.718;2022-07-17T13:59:08;3.40;;;1.30;;
68438;SDS011;55421;51.600;5.718;2022-07-17T14:01:35;6.00;;;1.20;;
68438;SDS011;55421;51.600;5.718;2022-07-17T14:04:01;5.50;;;1.40;;
68438;SDS011;55421;51.600;5.718;2022-07-17T14:06:28;3.20;;;1.20;;
68438;SDS011;55421;51.600;5.718;2022-07-17T14:08:54;4.20;;;1.20;;
68438;SDS011;55421;51.600;5.718;2022-07-17T14:11:21;4.20;;;1.30;;
68438;SDS011;55421;51.600;5.718;2022-07-17T14:13:48;6.30;;;1.80;;
68438;SDS011;55421;51.600;5.718;2022-07-17T14:16:14;2.80;;;1.10;;
68438;SDS011;55421;51.600;5.718;2022-07-17T14:18:41;4.40;;;1.40;;
68438;SDS011;55421;51.600;5.718;2022-07-17T14:21:28;3.70;;;1.20;;
68438;SDS011;55421;51.600;5.718;2022-07-17T14:23:57;3.40;;;1.10;;
68438;SDS011;55421;51.600;5.718;2022-07-17T14:26:24;1.90;;;1.10;;
68438;SDS011;55421;51.600;5.718;2022-07-17T14:28:51;4.90;;;1.20;;
68438;SDS011;55421;51.600;5.718;2022-07-17T14:31:17;3.40;;;1.20;;
68438;SDS011;55421;51.600;5.718;2022-07-17T14:33:44;2.50;;;1.10;;
68438;SDS011;55421;51.600;5.718;2022-07-17T14:36:13;2.40;;;1.10;;
68438;SDS011;55421;51.600;5.718;2022-07-17T14:38:39;5.10;;;1.50;;
68438;SDS011;55421;51.600;5.718;2022-07-17T14:41:06;2.80;;;1.20;;
68438;SDS011;55421;51.600;5.718;2022-07-17T14:43:33;5.20;;;1.40;;
68438;SDS011;55421;51.600;5.718;2022-07-17T14:45:59;5.10;;;1.30;;
68438;SDS011;55421;51.600;5.718;2022-07-17T14:48:25;4.00;;;1.10;;
68438;SDS011;55421;51.600;5.718;2022-07-17T14:50:52;3.20;;;1.20;;
68438;SDS011;55421;51.600;5.718;2022-07-17T14:53:19;3.20;;;1.30;;
68438;SDS011;55421;51.600;5.718;2022-07-17T14:55:46;2.60;;;1.30;;
68438;SDS011;55421;51.600;5.718;2022-07-17T14:58:12;3.50;;;1.20;;
68438;SDS011;55421;51.600;5.718;2022-07-17T15:00:38;4.10;;;1.00;;
68438;SDS011;55421;51.600;5.718;2022-07-17T15:03:05;3.70;;;1.30;;
68438;SDS011;55421;51.600;5.718;2022-07-17T15:05:31;6.70;;;1.30;;
68438;SDS011;55421;51.600;5.718;2022-07-17T15:07:58;4.80;;;1.10;;
68438;SDS011;55421;51.600;5.718;2022-07-17T15:10:24;2.60;;;1.20;;
68438;SDS011;55421;51.600;5.718;2022-07-17T15:12:51;7.40;;;1.80;;
68438;SDS011;55421;51.600;5.718;2022-07-17T15:15:17;2.30;;;1.20;;
68438;SDS011;55421;51.600;5.718;2022-07-17T15:17:44;2.20;;;1.10;;
68438;SDS011;55421;51.600;5.718;2022-07-17T15:20:10;4.70;;;1.40;;
68438;SDS011;55421;51.600;5.718;2022-07-17T15:25:07;2.40;;;1.10;;